Time;durP1;ratioP1;P1;durP2;ratioP2;P2;SDS_P1;SDS_P2;PMS_P1;PMS_P2;Temp;Humidity;BMP_temperature;BMP_pressure;BME280_temperature;BME280_humidity;BME280_pressure;Samples;Min_cycle;Max_cycle;Signal;HPM_P1;HPM_P2
2022/11/05 00:10:49;;;;;;;11.27;3.03;;;28.10;54.30;;;;;;5028976;28;20524;-64
2022/11/05 00:19:05;;;;;;;6.90;1.13;;;28.20;50.50;;;;;;5026343;28;20052;-64
2022/11/05 00:27:04;;;;;;;3.75;0.93;;;25.80;51.70;;;;;;5027703;28;20398;-62
2022/11/05 00:29:32;;;;;;;6.40;1.70;;;25.60;53.50;;;;;;5029072;28;20021;-64
2022/11/05 00:31:59;;;;;;;6.43;1.13;;;25.40;53.50;;;;;;5028415;28;20029;-64
2022/11/05 00:34:26;;;;;;;4.72;1.20;;;25.20;54.60;;;;;;5026487;28;20021;-64
2022/11/05 00:36:53;;;;;;;6.55;1.70;;;25.10;57.20;;;;;;5043685;28;20025;-63
2022/11/05 00:39:21;;;;;;;10.10;1.70;;;25.50;56.70;;;;;;5023781;28;20021;-63
2022/11/05 00:44:58;;;;;;;5.53;1.45;;;26.30;55.60;;;;;;5023385;28;20128;-62
2022/11/05 00:50:05;;;;;;;6.05;1.10;;;28.00;49.30;;;;;;5028519;28;20045;-62
2022/11/05 00:55:25;;;;;;;2.78;0.77;;;27.20;50.60;;;;;;5028875;28;20045;-64
2022/11/05 00:57:52;;;;;;;4.45;0.95;;;26.70;49.70;;;;;;5030555;28;20037;-64
2022/11/05 01:00:20;;;;;;;4.18;1.10;;;25.90;51.50;;;;;;5028638;28;20021;-65
2022/11/05 01:02:48;;;;;;;3.50;0.73;;;25.90;51.80;;;;;;5027178;28;20087;-64
2022/11/05 01:05:15;;;;;;;4.55;1.13;;;25.80;52.50;;;;;;5029150;28;20053;-64
2022/11/05 01:07:42;;;;;;;3.45;0.82;;;26.30;53.20;;;;;;5028276;28;20026;-63
2022/11/05 01:10:10;;;;;;;5.07;1.02;;;26.70;51.70;;;;;;5027293;28;20564;-63
2022/11/05 01:12:37;;;;;;;11.88;1.25;;;26.10;51.40;;;;;;5027456;28;20036;-63
2022/11/05 01:15:05;;;;;;;5.55;1.10;;;25.30;53.40;;;;;;5025377;28;20382;-63
2022/11/05 01:17:32;;;;;;;5.60;1.50;;;25.20;53.90;;;;;;5030764;28;20064;-63
2022/11/05 01:20:00;;;;;;;5.53;1.05;;;25.30;55.30;;;;;;5031438;28;20022;-63
2022/11/05 01:22:30;;;;;;;5.65;1.30;;;25.40;54.20;;;;;;5028153;28;20065;-64
2022/11/05 01:24:57;;;;;;;3.55;1.17;;;26.00;56.30;;;;;;5030348;28;20084;-62
2022/11/05 01:27:24;;;;;;;3.05;1.05;;;26.50;56.70;;;;;;5030063;28;20036;-63
2022/11/05 01:29:51;;;;;;;4.90;1.15;;;27.10;50.30;;;;;;5022229;28;20026;-61
2022/11/05 01:32:18;;;;;;;3.58;1.00;;;27.40;51.80;;;;;;5018400;28;20025;-61
2022/11/05 01:34:46;;;;;;;5.55;1.08;;;27.50;51.60;;;;;;5027206;28;20029;-61
2022/11/05 01:37:13;;;;;;;7.55;1.00;;;27.10;49.80;;;;;;5025617;28;20025;-61
2022/11/05 01:39:40;;;;;;;5.05;1.00;;;26.50;50.00;;;;;;5026137;28;20743;-62
2022/11/05 01:42:23;;;;;;;4.85;1.05;;;25.80;51.70;;;;;;5025058;28;20030;-53
2022/11/05 01:45:01;;;;;;;3.38;1.00;;;25.40;51.10;;;;;;5026937;28;20040;-60
2022/11/05 01:47:56;;;;;;;3.35;1.15;;;24.90;53.30;;;;;;5024092;28;20029;-58
2022/11/05 01:50:32;;;;;;;4.70;1.10;;;24.50;54.90;;;;;;5024885;28;20033;-61
2022/11/05 01:53:22;;;;;;;4.47;1.20;;;24.50;54.10;;;;;;5021240;28;20056;-60
2022/11/05 01:56:22;;;;;;;5.05;1.30;;;24.40;53.80;;;;;;5023861;28;20025;-60
2022/11/05 01:59:00;;;;;;;3.80;1.30;;;24.40;53.50;;;;;;5023509;28;20105;-62
2022/11/05 02:01:28;;;;;;;6.43;1.55;;;24.50;53.30;;;;;;5022723;28;20079;-62
2022/11/05 02:03:58;;;;;;;4.30;1.17;;;24.60;53.30;;;;;;5022800;28;20496;-61
2022/11/05 02:06:29;;;;;;;4.93;1.15;;;24.60;52.60;;;;;;5022815;28;20061;-61
2022/11/05 02:09:21;;;;;;;4.05;1.48;;;24.70;53.00;;;;;;5023946;28;20029;-60
2022/11/05 02:11:50;;;;;;;4.57;1.10;;;24.70;54.40;;;;;;5023952;28;20057;-61
2022/11/05 02:14:19;;;;;;;4.90;1.45;;;24.50;56.70;;;;;;5024494;28;20052;-60
2022/11/05 02:16:50;;;;;;;8.50;1.67;;;24.40;55.90;;;;;;5024795;28;20025;-60
2022/11/05 02:19:47;;;;;;;5.45;1.15;;;24.20;56.40;;;;;;5024693;28;20112;-61
2022/11/05 02:22:22;;;;;;;6.63;1.30;;;24.10;56.50;;;;;;5023632;28;20033;-60
2022/11/05 02:25:19;;;;;;;5.43;1.15;;;24.00;56.60;;;;;;5021877;28;20045;-61
2022/11/05 02:28:15;;;;;;;3.28;1.02;;;24.10;55.80;;;;;;5024158;28;20021;-60
2022/11/05 02:30:57;;;;;;;3.08;1.13;;;23.70;57.50;;;;;;5023033;28;20100;-62
2022/11/05 02:33:30;;;;;;;12.68;1.85;;;23.70;57.20;;;;;;5025585;28;20021;-62
2022/11/05 02:36:12;;;;;;;6.30;1.50;;;23.60;57.00;;;;;;5024491;28;20108;-60
2022/11/05 02:38:51;;;;;;;2.95;1.15;;;23.50;57.40;;;;;;5023401;28;20021;-60
2022/11/05 02:41:38;;;;;;;5.10;1.33;;;23.60;58.50;;;;;;5026206;28;20029;-62
2022/11/05 02:44:24;;;;;;;7.95;1.33;;;23.70;56.80;;;;;;5025602;28;20493;-60
2022/11/05 02:47:13;;;;;;;4.43;1.10;;;23.70;58.10;;;;;;5024965;28;20026;-61
2022/11/05 02:50:13;;;;;;;3.53;1.45;;;23.90;57.50;;;;;;5026382;28;20036;-60
2022/11/05 02:52:53;;;;;;;4.35;2.10;;;24.40;58.20;;;;;;5024221;28;20037;-59
2022/11/05 02:55:23;;;;;;;7.65;1.48;;;24.90;56.00;;;;;;5022705;28;20047;-60
2022/11/05 02:57:50;;;;;;;8.88;1.30;;;25.00;55.10;;;;;;5026597;28;20026;-65
2022/11/05 03:00:48;;;;;;;3.55;1.30;;;24.90;55.00;;;;;;5027135;28;20033;-59
2022/11/05 03:03:34;;;;;;;4.38;1.15;;;25.00;54.90;;;;;;5024457;28;20460;-60
2022/11/05 03:06:17;;;;;;;4.82;1.45;;;24.80;54.10;;;;;;5010649;28;20025;-61
2022/11/05 03:08:44;;;;;;;4.32;1.17;;;24.50;54.70;;;;;;5025950;28;20021;-60
2022/11/05 03:11:43;;;;;;;6.35;1.27;;;24.30;55.60;;;;;;5027253;28;20031;-59
2022/11/05 03:14:21;;;;;;;5.13;1.42;;;24.00;57.50;;;;;;5026561;28;20068;-62
2022/11/05 03:17:20;;;;;;;4.43;1.40;;;24.20;58.30;;;;;;5025091;28;20037;-62
2022/11/05 03:20:14;;;;;;;3.95;1.35;;;24.00;57.30;;;;;;5027008;28;20041;-65
2022/11/05 03:22:58;;;;;;;6.57;1.08;;;23.90;57.30;;;;;;5025279;28;20354;-66
2022/11/05 03:25:28;;;;;;;4.32;1.50;;;23.70;57.50;;;;;;5020738;28;20056;-66
2022/11/05 03:27:59;;;;;;;6.25;1.20;;;23.90;59.20;;;;;;5019399;28;20033;-66
2022/11/05 03:30:27;;;;;;;7.20;1.23;;;24.20;58.80;;;;;;5023903;28;20022;-66
2022/11/05 03:33:06;;;;;;;3.40;1.30;;;24.90;57.50;;;;;;5022875;28;20030;-65
2022/11/05 03:35:39;;;;;;;5.70;1.40;;;25.60;57.10;;;;;;5023092;28;20025;-65
2022/11/05 03:38:14;;;;;;;4.75;1.27;;;26.20;55.40;;;;;;5025777;28;20029;-66
2022/11/05 03:40:44;;;;;;;4.70;1.15;;;26.20;55.30;;;;;;5027380;28;20033;-66
2022/11/05 03:43:15;;;;;;;9.30;1.13;;;26.50;55.30;;;;;;5025403;28;20033;-65
2022/11/05 03:46:09;;;;;;;4.25;0.93;;;26.70;54.50;;;;;;5022060;28;20779;-66
2022/11/05 03:48:43;;;;;;;5.22;1.15;;;26.50;53.70;;;;;;5025022;28;20088;-65
2022/11/05 03:51:32;;;;;;;7.80;2.42;;;26.50;53.70;;;;;;5025567;28;20396;-62
2022/11/05 03:54:02;;;;;;;13.30;4.32;;;26.30;55.50;;;;;;5024168;28;20041;-64
2022/11/05 03:56:35;;;;;;;10.65;3.90;;;25.90;57.20;;;;;;5025337;28;20398;-66
2022/11/05 03:59:04;;;;;;;10.10;5.10;;;25.90;58.10;;;;;;5024445;28;20029;-66
2022/11/05 04:01:31;;;;;;;11.88;4.75;;;25.30;58.10;;;;;;5025336;28;20025;-64
2022/11/05 04:03:59;;;;;;;11.38;4.32;;;24.80;59.50;;;;;;5025632;28;20065;-63
2022/11/05 04:14:44;;;;;;;10.98;4.70;;;25.20;58.90;;;;;;5029864;28;20036;-60
2022/11/05 04:17:12;;;;;;;8.70;3.72;;;24.50;59.70;;;;;;5027892;28;20044;-59
2022/11/05 04:25:15;;;;;;;8.98;4.35;;;23.80;62.60;;;;;;5019452;28;20135;-60
2022/11/05 04:27:43;;;;;;;10.80;3.60;;;24.00;63.20;;;;;;5026276;28;20013;-58
2022/11/05 04:30:17;;;;;;;9.63;3.90;;;24.00;63.40;;;;;;5024552;28;20036;-59
2022/11/05 04:33:11;;;;;;;8.77;3.40;;;24.10;62.30;;;;;;5024030;28;20029;-59
2022/11/05 04:35:40;;;;;;;6.00;3.08;;;23.90;63.30;;;;;;5036971;28;20389;-56
2022/11/05 04:38:16;;;;;;;8.80;3.75;;;24.00;64.90;;;;;;5025177;28;20018;-64
2022/11/05 04:40:44;;;;;;;7.88;2.47;;;24.30;63.90;;;;;;5025175;28;20052;-66
2022/11/05 04:43:14;;;;;;;10.45;3.22;;;24.50;63.50;;;;;;5040807;28;20028;-66
2022/11/05 04:45:42;;;;;;;13.30;3.75;;;24.50;63.40;;;;;;5025459;28;20035;-66
2022/11/05 04:48:09;;;;;;;8.00;3.78;;;24.30;63.00;;;;;;5023095;28;20053;-65
2022/11/05 04:50:37;;;;;;;11.10;6.28;;;24.10;64.00;;;;;;5027307;28;20502;-64
2022/11/05 04:53:04;;;;;;;11.57;8.27;;;24.10;63.60;;;;;;5023056;28;20084;-63
2022/11/05 04:55:31;;;;;;;13.27;8.15;;;23.80;64.40;;;;;;5025306;28;20076;-65
2022/11/05 04:57:58;;;;;;;16.17;9.35;;;23.50;63.70;;;;;;5029154;28;20408;-66
2022/11/05 05:00:26;;;;;;;19.35;12.05;;;23.50;65.30;;;;;;5028080;28;20029;-65
2022/11/05 05:02:53;;;;;;;22.13;13.15;;;23.50;65.80;;;;;;5025339;28;20033;-65
2022/11/05 05:05:29;;;;;;;15.50;9.57;;;23.70;65.30;;;;;;5028376;28;20025;-64
2022/11/05 05:08:02;;;;;;;10.50;5.95;;;23.90;64.90;;;;;;5021230;28;20125;-64
2022/11/05 05:10:29;;;;;;;13.75;8.65;;;24.00;64.60;;;;;;5027246;28;20513;-65
2022/11/05 05:12:56;;;;;;;13.27;8.77;;;24.10;63.60;;;;;;5031614;28;20032;-65
2022/11/05 05:15:23;;;;;;;16.08;9.48;;;24.10;63.50;;;;;;5027914;28;20394;-64
2022/11/05 05:17:52;;;;;;;26.30;15.52;;;23.70;64.00;;;;;;5027537;28;20116;-64
2022/11/05 05:23:05;;;;;;;24.55;16.23;;;23.20;64.60;;;;;;5028125;28;20115;-64
2022/11/05 05:25:32;;;;;;;25.05;17.30;;;22.80;65.10;;;;;;5026086;28;20049;-64
2022/11/05 05:27:59;;;;;;;32.42;16.45;;;22.60;67.30;;;;;;5028142;28;20033;-64
2022/11/05 05:30:26;;;;;;;30.88;19.23;;;22.70;66.80;;;;;;5028504;28;20026;-64
2022/11/05 05:32:54;;;;;;;30.60;19.15;;;22.80;65.90;;;;;;5026793;28;20098;-64
2022/11/05 05:35:21;;;;;;;24.83;15.88;;;23.00;65.40;;;;;;5027010;28;20029;-64
2022/11/05 05:37:48;;;;;;;28.20;18.88;;;23.30;64.40;;;;;;5028123;28;20021;-64
2022/11/05 05:40:15;;;;;;;37.28;24.70;;;23.60;64.10;;;;;;5028216;28;20075;-65
2022/11/05 05:42:43;;;;;;;31.75;21.92;;;23.60;63.20;;;;;;5027354;28;20029;-65
2022/11/05 05:45:11;;;;;;;33.45;23.35;;;23.70;61.60;;;;;;5027053;28;20464;-64
2022/11/05 05:47:38;;;;;;;32.78;23.75;;;23.80;63.30;;;;;;5026882;28;20029;-64
2022/11/05 05:50:06;;;;;;;39.10;26.80;;;23.80;61.50;;;;;;5023283;28;20457;-65
2022/11/05 05:52:33;;;;;;;38.80;25.17;;;23.80;60.90;;;;;;5026449;28;20517;-65
2022/11/05 05:55:00;;;;;;;29.15;21.15;;;23.80;61.20;;;;;;5037738;28;20047;-65
2022/11/05 05:57:28;;;;;;;39.33;23.83;;;23.90;61.30;;;;;;5032790;28;20583;-62
2022/11/05 05:59:55;;;;;;;42.83;29.48;;;23.80;61.70;;;;;;5026648;28;20036;-64
2022/11/05 06:02:22;;;;;;;45.15;32.25;;;23.50;61.00;;;;;;5028011;28;20482;-64
2022/11/05 06:04:49;;;;;;;52.58;32.25;;;23.20;61.10;;;;;;5027829;28;20045;-64
2022/11/05 06:07:17;;;;;;;47.53;34.28;;;23.00;62.30;;;;;;5023693;28;20767;-64
2022/11/05 06:09:44;;;;;;;43.17;28.67;;;22.80;62.80;;;;;;5024387;28;20026;-64
2022/11/05 06:12:11;;;;;;;33.83;25.38;;;22.70;62.80;;;;;;5027112;28;20058;-65
2022/11/05 06:14:38;;;;;;;34.00;22.27;;;22.60;64.80;;;;;;5026183;28;20036;-64
2022/11/05 06:17:07;;;;;;;35.95;25.27;;;22.90;63.60;;;;;;5028433;28;20026;-64
2022/11/05 06:19:34;;;;;;;34.58;22.33;;;22.90;64.20;;;;;;5019928;28;20051;-65
2022/11/05 06:22:01;;;;;;;32.97;20.58;;;22.90;64.50;;;;;;5038694;28;20772;-65
2022/11/05 06:24:28;;;;;;;30.20;17.02;;;22.80;65.00;;;;;;5027901;28;20041;-66
2022/11/05 06:26:56;;;;;;;23.52;14.80;;;22.40;64.80;;;;;;5030485;28;20021;-64
2022/11/05 06:29:23;;;;;;;24.95;15.88;;;22.30;66.90;;;;;;5033233;28;20036;-64
2022/11/05 06:31:50;;;;;;;22.55;13.05;;;22.40;66.70;;;;;;5031229;28;20467;-64
2022/11/05 06:34:17;;;;;;;21.30;14.15;;;22.40;66.00;;;;;;5031083;28;20033;-63
2022/11/05 06:36:45;;;;;;;26.10;14.55;;;22.20;67.20;;;;;;5034921;28;20100;-63
2022/11/05 06:39:12;;;;;;;17.63;12.70;;;22.00;68.10;;;;;;5032389;28;20041;-63
2022/11/05 06:41:39;;;;;;;20.92;13.52;;;21.90;68.30;;;;;;5026552;28;20079;-66
2022/11/05 06:44:07;;;;;;;24.55;14.05;;;21.70;69.40;;;;;;5027743;28;20099;-64
2022/11/05 06:46:34;;;;;;;25.48;14.80;;;21.80;69.50;;;;;;5025180;28;20136;-63
2022/11/05 06:49:01;;;;;;;24.10;15.07;;;21.70;70.70;;;;;;5026334;28;20401;-65
2022/11/05 06:51:29;;;;;;;28.20;15.32;;;21.70;72.10;;;;;;5025174;28;20029;-65
2022/11/05 06:53:56;;;;;;;24.40;15.10;;;21.70;73.00;;;;;;5026806;28;20033;-65
2022/11/05 06:56:23;;;;;;;24.08;15.40;;;21.80;73.80;;;;;;5026818;28;20022;-66
2022/11/05 06:58:51;;;;;;;22.52;13.63;;;21.70;73.20;;;;;;5026979;28;20030;-65
2022/11/05 07:01:18;;;;;;;26.90;13.43;;;21.50;74.30;;;;;;5023567;28;20399;-65
2022/11/05 07:03:47;;;;;;;24.77;13.38;;;21.30;75.90;;;;;;5026539;28;20040;-65
2022/11/05 07:06:15;;;;;;;22.85;13.82;;;21.10;76.40;;;;;;5026763;28;20441;-64
2022/11/05 07:08:42;;;;;;;18.98;11.65;;;21.00;77.40;;;;;;5025508;28;20112;-65
2022/11/05 07:11:09;;;;;;;19.67;13.88;;;20.90;77.40;;;;;;5027960;28;20041;-65
2022/11/05 07:13:36;;;;;;;25.15;13.93;;;20.70;77.70;;;;;;5029193;28;20087;-65
2022/11/05 07:16:04;;;;;;;19.30;12.48;;;20.50;77.40;;;;;;5029375;28;20021;-65
2022/11/05 07:18:31;;;;;;;20.40;12.65;;;20.30;77.80;;;;;;5030943;28;20495;-65
2022/11/05 07:20:59;;;;;;;21.15;11.00;;;20.30;78.40;;;;;;5030752;28;20033;-65
2022/11/05 07:23:27;;;;;;;21.48;11.30;;;20.30;78.30;;;;;;5030509;28;20501;-65
2022/11/05 07:25:54;;;;;;;18.83;11.45;;;20.40;78.40;;;;;;5030458;28;20036;-65
2022/11/05 07:28:21;;;;;;;25.95;13.35;;;20.40;77.80;;;;;;5031281;28;20028;-64
2022/11/05 07:30:48;;;;;;;26.60;14.35;;;20.30;78.50;;;;;;5030966;28;20053;-65
2022/11/05 07:33:16;;;;;;;22.67;13.00;;;20.20;78.30;;;;;;5029167;28;20026;-65
2022/11/05 07:35:43;;;;;;;28.08;13.43;;;20.10;79.00;;;;;;5030694;28;20026;-65
2022/11/05 07:38:10;;;;;;;21.17;12.70;;;20.00;79.90;;;;;;5028535;28;20083;-65
2022/11/05 07:40:38;;;;;;;21.58;11.32;;;20.00;80.10;;;;;;5029157;28;20033;-65
2022/11/05 07:43:05;;;;;;;12.45;7.05;;;19.90;79.50;;;;;;5030430;28;20121;-64
2022/11/05 07:45:32;;;;;;;17.42;8.25;;;19.80;77.00;;;;;;5030497;28;20021;-65
2022/11/05 07:48:02;;;;;;;16.40;9.43;;;19.80;76.60;;;;;;5030146;28;20026;-64
2022/11/05 07:50:32;;;;;;;10.43;5.85;;;19.60;76.90;;;;;;5029923;28;20460;-65
2022/11/05 07:53:04;;;;;;;10.73;4.82;;;19.60;77.30;;;;;;5029693;28;20049;-65
2022/11/05 07:55:32;;;;;;;11.30;5.75;;;19.50;76.60;;;;;;5030249;28;20095;-65
2022/11/05 07:57:59;;;;;;;15.60;5.25;;;19.30;76.20;;;;;;5030088;28;20022;-65
2022/11/05 08:00:27;;;;;;;15.60;6.40;;;19.30;76.60;;;;;;5030012;28;20087;-65
2022/11/05 08:03:12;;;;;;;12.82;6.13;;;19.20;76.40;;;;;;5029980;28;20405;-66
2022/11/05 08:05:44;;;;;;;11.32;3.35;;;19.10;77.90;;;;;;5029859;28;20041;-65
2022/11/05 08:08:14;;;;;;;7.78;3.42;;;19.00;79.70;;;;;;5028525;28;20035;-64
2022/11/05 08:10:42;;;;;;;7.97;3.20;;;18.90;80.60;;;;;;5030134;28;20095;-65
2022/11/05 08:13:10;;;;;;;6.93;3.25;;;18.80;81.70;;;;;;5028622;28;20485;-65
2022/11/05 08:15:37;;;;;;;7.50;3.28;;;18.70;82.90;;;;;;5029196;28;20071;-62
2022/11/05 08:18:07;;;;;;;9.80;3.90;;;18.60;83.90;;;;;;5028399;28;20846;-63
2022/11/05 08:20:35;;;;;;;10.85;3.40;;;18.40;84.70;;;;;;5029628;28;20087;-64
2022/11/05 08:23:03;;;;;;;8.75;2.30;;;18.30;85.70;;;;;;5027444;28;20517;-64
2022/11/05 08:25:31;;;;;;;8.93;2.22;;;18.20;86.80;;;;;;5029378;28;20032;-64
2022/11/05 08:28:00;;;;;;;8.48;2.75;;;18.10;88.00;;;;;;5029492;28;20032;-64
2022/11/05 08:30:29;;;;;;;5.53;2.00;;;18.00;88.70;;;;;;5029654;28;20048;-64
2022/11/05 08:33:08;;;;;;;7.03;2.65;;;18.00;89.60;;;;;;5029718;28;20032;-64
2022/11/05 08:35:36;;;;;;;4.80;2.42;;;17.80;90.20;;;;;;5029579;28;20025;-64
2022/11/05 08:38:06;;;;;;;9.07;3.00;;;17.70;90.60;;;;;;5027586;28;20509;-63
2022/11/05 08:40:35;;;;;;;7.13;2.45;;;17.70;91.10;;;;;;5028088;28;20034;-64
2022/11/05 08:43:05;;;;;;;8.45;2.47;;;17.60;91.50;;;;;;5027572;28;20045;-64
2022/11/05 08:45:34;;;;;;;9.50;2.42;;;17.50;91.80;;;;;;5027942;28;20029;-64
2022/11/05 08:48:13;;;;;;;6.57;1.60;;;17.40;92.20;;;;;;5028978;28;20029;-64
2022/11/05 08:50:42;;;;;;;5.63;1.83;;;17.30;92.60;;;;;;5028758;28;20039;-64
2022/11/05 08:53:09;;;;;;;3.03;1.38;;;17.30;92.60;;;;;;5027799;28;20062;-64
2022/11/05 08:55:37;;;;;;;7.28;1.65;;;17.30;92.60;;;;;;5027894;28;20025;-64
2022/11/05 08:58:11;;;;;;;4.68;1.38;;;17.20;92.60;;;;;;5029149;28;20018;-64
2022/11/05 09:00:39;;;;;;;3.50;1.40;;;17.20;92.80;;;;;;5027744;28;20505;-63
2022/11/05 09:03:07;;;;;;;7.85;1.52;;;17.20;92.80;;;;;;5028436;28;20087;-63
2022/11/05 09:05:39;;;;;;;4.60;1.63;;;17.10;93.20;;;;;;5028908;28;20084;-64
2022/11/05 09:08:15;;;;;;;7.10;1.42;;;17.10;93.30;;;;;;5028598;28;20041;-64
2022/11/05 09:10:43;;;;;;;7.90;1.30;;;17.10;93.00;;;;;;5028813;28;20108;-64
2022/11/05 09:13:10;;;;;;;7.38;1.35;;;17.10;93.00;;;;;;5028735;28;20370;-64
2022/11/05 09:15:39;;;;;;;6.03;1.23;;;17.00;93.30;;;;;;5027052;28;20060;-65
2022/11/05 09:18:10;;;;;;;5.65;0.98;;;17.00;93.50;;;;;;5028554;28;20107;-64
2022/11/05 09:20:38;;;;;;;13.10;1.60;;;16.80;93.60;;;;;;5025813;28;20481;-65
2022/11/05 09:23:07;;;;;;;3.03;0.95;;;16.80;93.60;;;;;;5023413;28;20044;-64
2022/11/05 09:25:34;;;;;;;5.80;1.10;;;16.70;94.00;;;;;;5024755;28;20024;-64
2022/11/05 09:28:15;;;;;;;7.13;1.52;;;16.70;94.10;;;;;;5028200;28;20072;-65
2022/11/05 09:30:45;;;;;;;4.78;1.73;;;16.60;94.60;;;;;;5028341;28;20028;-64
2022/11/05 09:33:13;;;;;;;5.72;1.60;;;16.50;94.90;;;;;;5027211;28;20072;-65
2022/11/05 09:35:41;;;;;;;5.38;1.40;;;16.40;95.10;;;;;;5022584;28;20486;-64
2022/11/05 09:38:09;;;;;;;7.70;1.63;;;16.40;94.80;;;;;;5022572;28;20037;-65
2022/11/05 09:41:01;;;;;;;6.50;1.25;;;16.30;94.90;;;;;;5025470;28;20029;-64
2022/11/05 09:43:33;;;;;;;3.47;0.93;;;16.30;95.10;;;;;;5026138;28;20068;-65
2022/11/05 09:46:09;;;;;;;9.00;1.10;;;16.20;95.20;;;;;;5025336;28;20029;-64
2022/11/05 09:48:39;;;;;;;4.57;1.05;;;16.10;95.30;;;;;;5025583;28;20131;-65
2022/11/05 09:51:09;;;;;;;7.93;2.22;;;16.00;95.70;;;;;;5027449;28;20021;-64
2022/11/05 09:53:41;;;;;;;5.95;1.70;;;16.00;95.70;;;;;;5027509;28;20490;-65
2022/11/05 09:56:20;;;;;;;6.00;1.00;;;15.90;95.90;;;;;;5026779;28;20150;-64
2022/11/05 09:58:52;;;;;;;7.72;1.63;;;15.80;96.20;;;;;;5027966;28;20061;-64
2022/11/05 10:01:28;;;;;;;5.00;1.52;;;15.70;96.40;;;;;;5027613;28;20029;-64
2022/11/05 10:03:59;;;;;;;6.47;1.30;;;15.60;96.80;;;;;;5024625;28;20489;-64
2022/11/05 10:06:27;;;;;;;8.73;1.20;;;15.50;96.70;;;;;;5027421;28;20018;-64
2022/11/05 10:09:17;;;;;;;6.25;1.30;;;15.40;97.30;;;;;;5027291;28;21512;-65
2022/11/05 10:11:55;;;;;;;4.65;0.95;;;15.30;97.40;;;;;;5019104;28;20104;-64
2022/11/05 10:14:35;;;;;;;4.10;1.23;;;15.30;97.30;;;;;;5027496;28;20076;-65
2022/11/05 10:17:21;;;;;;;10.23;1.00;;;15.30;97.60;;;;;;5026635;28;20076;-65
2022/11/05 10:20:02;;;;;;;3.55;1.30;;;15.30;97.50;;;;;;5025734;28;20059;-64
2022/11/05 10:22:29;;;;;;;2.97;0.88;;;15.30;97.50;;;;;;5027330;28;20025;-65
2022/11/05 10:24:56;;;;;;;4.13;1.10;;;15.20;97.30;;;;;;5027422;28;20063;-67
2022/11/05 10:27:31;;;;;;;3.10;0.93;;;15.10;97.50;;;;;;5027743;28;20021;-64
2022/11/05 10:29:58;;;;;;;2.40;0.90;;;15.00;97.40;;;;;;5027326;28;20033;-65
2022/11/05 10:32:36;;;;;;;5.28;1.98;;;15.00;97.60;;;;;;5027638;28;20026;-67
2022/11/05 10:35:06;;;;;;;3.67;1.10;;;14.90;97.90;;;;;;5027290;28;20029;-65
2022/11/05 10:37:35;;;;;;;5.68;1.17;;;14.80;98.10;;;;;;5026836;28;20384;-64
2022/11/05 10:40:05;;;;;;;4.00;0.90;;;14.70;98.50;;;;;;5026095;28;20029;-65
2022/11/05 10:42:59;;;;;;;7.68;1.55;;;14.60;98.70;;;;;;5027150;28;20079;-65
2022/11/05 10:46:02;;;;;;;4.53;1.03;;;14.50;99.10;;;;;;5027111;28;20144;-65
2022/11/05 10:48:40;;;;;;;3.13;0.73;;;14.40;99.50;;;;;;5026736;28;20281;-65
2022/11/05 10:51:08;;;;;;;3.97;0.90;;;14.30;99.90;;;;;;5026716;28;20133;-65
2022/11/05 10:53:37;;;;;;;8.88;1.50;;;14.20;99.90;;;;;;5026883;28;20057;-65
2022/11/05 10:56:38;;;;;;;9.40;1.67;;;14.10;99.90;;;;;;5026843;28;20418;-65
2022/11/05 10:59:20;;;;;;;3.85;1.15;;;14.00;99.90;;;;;;5027048;28;20060;-65
2022/11/05 11:01:54;;;;;;;9.20;2.38;;;14.00;99.90;;;;;;5026905;28;20024;-64
2022/11/05 11:04:26;;;;;;;12.85;2.92;;;13.90;99.90;;;;;;5027274;28;20045;-64
2022/11/05 11:06:55;;;;;;;7.93;2.28;;;14.00;99.90;;;;;;5027365;28;20053;-64
2022/11/05 11:09:24;;;;;;;7.85;1.80;;;14.00;99.90;;;;;;5027308;28;20018;-64
2022/11/05 11:12:23;;;;;;;7.40;1.90;;;13.90;99.90;;;;;;5027392;28;20045;-64
2022/11/05 11:15:22;;;;;;;7.88;2.22;;;13.80;99.90;;;;;;5025206;28;20121;-64
2022/11/05 11:17:49;;;;;;;5.30;1.52;;;13.70;99.90;;;;;;5026505;28;20575;-64
2022/11/05 11:20:25;;;;;;;4.60;1.13;;;13.60;99.90;;;;;;5026558;28;20167;-64
2022/11/05 11:23:10;;;;;;;6.57;1.52;;;13.50;99.90;;;;;;5027169;28;20022;-64
2022/11/05 11:26:00;;;;;;;3.50;1.45;;;13.40;99.90;;;;;;5026446;28;20423;-64
2022/11/05 11:28:37;;;;;;;7.50;1.30;;;13.30;99.90;;;;;;5006123;28;20068;-63
2022/11/05 11:31:23;;;;;;;6.03;1.40;;;13.30;99.90;;;;;;5007260;28;20029;-63
2022/11/05 11:33:58;;;;;;;4.57;1.00;;;13.20;99.90;;;;;;5007026;28;20018;-63
2022/11/05 11:36:47;;;;;;;4.22;1.50;;;13.20;99.90;;;;;;5005830;28;20080;-65
2022/11/05 11:39:19;;;;;;;6.68;1.23;;;13.10;99.90;;;;;;5024415;28;20021;-64
2022/11/05 11:41:52;;;;;;;3.00;0.90;;;13.00;99.90;;;;;;5026442;28;20029;-64
2022/11/05 11:44:29;;;;;;;5.18;1.23;;;12.90;99.90;;;;;;5026345;28;20042;-64
2022/11/05 11:47:08;;;;;;;2.88;0.77;;;12.90;99.90;;;;;;5025201;28;20022;-64
2022/11/05 11:49:44;;;;;;;5.78;0.98;;;12.90;99.90;;;;;;5025908;28;20029;-64
2022/11/05 11:52:15;;;;;;;4.18;1.10;;;12.80;99.90;;;;;;5025828;28;20050;-64
2022/11/05 11:54:43;;;;;;;2.33;1.25;;;12.80;99.90;;;;;;5023745;28;20029;-63
2022/11/05 11:57:26;;;;;;;6.30;1.65;;;12.70;99.90;;;;;;5025988;28;20112;-63
2022/11/05 11:59:56;;;;;;;6.50;1.45;;;12.70;99.90;;;;;;5029931;28;20018;-63
2022/11/05 12:02:51;;;;;;;7.03;2.35;;;12.70;99.90;;;;;;5029701;28;20032;-63
2022/11/05 12:05:35;;;;;;;3.45;1.02;;;12.70;99.90;;;;;;5027582;28;20041;-64
2022/11/05 12:08:33;;;;;;;3.30;1.13;;;12.70;99.90;;;;;;5026909;28;20102;-63
2022/11/05 12:11:09;;;;;;;7.18;1.10;;;12.70;99.90;;;;;;5023691;28;20092;-66
2022/11/05 12:13:48;;;;;;;5.55;1.30;;;12.60;99.90;;;;;;5025595;28;20022;-65
2022/11/05 12:16:46;;;;;;;4.40;2.17;;;12.50;99.90;;;;;;5027428;28;20021;-62
2022/11/05 12:19:50;;;;;;;5.28;1.30;;;12.50;99.90;;;;;;5027142;28;20395;-63
2022/11/05 12:22:40;;;;;;;5.03;1.42;;;12.40;99.90;;;;;;5025387;28;20021;-64
2022/11/05 12:25:17;;;;;;;3.17;1.58;;;12.30;99.90;;;;;;5025671;28;20048;-64
2022/11/05 12:27:57;;;;;;;8.20;1.80;;;12.30;99.90;;;;;;5026672;28;20393;-64
2022/11/05 12:30:45;;;;;;;4.78;1.55;;;12.20;99.90;;;;;;5006631;28;20029;-64
2022/11/05 12:34:01;;;;;;;6.20;1.63;;;12.20;99.90;;;;;;5007135;28;20018;-63
2022/11/05 12:36:47;;;;;;;4.90;1.65;;;12.10;99.90;;;;;;5024792;28;20052;-63
2022/11/05 12:39:27;;;;;;;5.53;1.73;;;12.00;99.90;;;;;;5026744;28;20021;-65
2022/11/05 12:41:57;;;;;;;4.72;1.65;;;12.10;99.90;;;;;;5025629;28;20030;-64
2022/11/05 12:44:24;;;;;;;11.02;2.08;;;12.10;99.90;;;;;;5026703;28;20056;-64
2022/11/05 12:47:03;;;;;;;6.03;1.75;;;12.30;99.90;;;;;;5026654;28;20084;-64
2022/11/05 12:49:50;;;;;;;5.85;2.17;;;12.60;99.90;;;;;;5026418;28;20040;-64
2022/11/05 12:52:30;;;;;;;5.07;1.60;;;12.90;99.90;;;;;;5026272;28;20042;-64
2022/11/05 12:55:02;;;;;;;9.02;1.70;;;13.10;99.90;;;;;;5026479;28;20151;-65
2022/11/05 12:57:32;;;;;;;5.85;2.00;;;13.20;99.90;;;;;;5026347;28;20025;-65
2022/11/05 13:00:05;;;;;;;9.02;1.88;;;13.20;99.90;;;;;;5026682;28;20053;-65
2022/11/05 13:02:47;;;;;;;8.90;2.33;;;13.20;99.90;;;;;;5024640;28;20083;-65
2022/11/05 13:05:14;;;;;;;6.85;1.98;;;13.30;99.90;;;;;;5025908;28;20033;-65
2022/11/05 13:08:06;;;;;;;5.82;2.00;;;13.30;99.90;;;;;;5026760;28;20078;-64
2022/11/05 13:10:36;;;;;;;5.38;1.38;;;13.40;99.90;;;;;;5025252;28;20433;-65
2022/11/05 13:13:22;;;;;;;9.25;2.03;;;13.40;99.90;;;;;;5024391;28;20055;-65
2022/11/05 13:16:12;;;;;;;7.47;2.50;;;13.50;99.90;;;;;;5025575;28;20083;-65
2022/11/05 13:19:08;;;;;;;6.80;2.13;;;13.40;99.90;;;;;;5024574;28;20033;-64
2022/11/05 13:21:37;;;;;;;6.45;2.25;;;13.40;99.90;;;;;;5024397;28;20502;-64
2022/11/05 13:24:27;;;;;;;4.88;2.40;;;13.20;99.90;;;;;;5025364;28;20814;-64
2022/11/05 13:27:17;;;;;;;5.80;2.20;;;13.10;99.90;;;;;;5024602;28;20199;-64
2022/11/05 13:30:02;;;;;;;7.60;2.20;;;13.00;99.90;;;;;;5026197;28;20029;-64
2022/11/05 13:32:35;;;;;;;8.15;2.35;;;12.80;99.90;;;;;;5025700;28;20079;-64
2022/11/05 13:35:06;;;;;;;5.45;3.08;;;12.60;99.90;;;;;;5021713;28;20048;-67
2022/11/05 13:41:04;;;;;;;13.93;3.17;;;12.50;99.90;;;;;;5021440;28;20040;-65
2022/11/05 13:43:37;;;;;;;8.82;2.80;;;12.40;99.90;;;;;;5015258;28;20480;-64
2022/11/05 13:46:31;;;;;;;8.93;3.08;;;12.40;99.90;;;;;;5033063;28;20029;-63
2022/11/05 13:49:46;;;;;;;5.57;2.88;;;12.30;99.90;;;;;;5025293;28;20774;-65
2022/11/05 13:52:50;;;;;;;8.55;3.53;;;12.30;99.90;;;;;;5025049;28;20092;-64
2022/11/05 13:55:20;;;;;;;13.00;3.60;;;12.40;99.90;;;;;;5023691;28;20109;-63
2022/11/05 13:58:20;;;;;;;13.23;2.88;;;12.60;99.90;;;;;;5027253;28;20170;-63
2022/11/05 14:01:15;;;;;;;11.02;3.28;;;12.90;99.90;;;;;;5023683;28;20094;-62
2022/11/05 14:03:48;;;;;;;6.32;2.95;;;12.90;99.90;;;;;;5010095;28;20033;-64
2022/11/05 14:06:24;;;;;;;9.32;3.75;;;12.80;99.90;;;;;;5025013;28;20950;-64